sensor_id;sensor_type;location;lat;lon;timestamp;pressure;altitude;pressure_sealevel;temperature;humidity
60170;BME280;46042;49.444;6.862;2022-09-02T00:01:26;98636.34;;;15.05;75.06
60170;BME280;46042;49.444;6.862;2022-09-02T00:04:00;98628.81;;;15.00;75.34
60170;BME280;46042;49.444;6.862;2022-09-02T00:06:28;98628.94;;;14.99;75.01
60170;BME280;46042;49.444;6.862;2022-09-02T00:09:04;98629.31;;;14.94;75.36
60170;BME280;46042;49.444;6.862;2022-09-02T00:11:33;98623.31;;;14.92;75.13
60170;BME280;46042;49.444;6.862;2022-09-02T00:14:03;98628.59;;;14.92;75.37
60170;BME280;46042;49.444;6.862;2022-09-02T00:16:31;98626.94;;;14.91;74.80
60170;BME280;46042;49.444;6.862;2022-09-02T00:19:00;98621.63;;;14.91;74.93
60170;BME280;46042;49.444;6.862;2022-09-02T00:21:28;98620.19;;;14.87;74.75
60170;BME280;46042;49.444;6.862;2022-09-02T00:23:55;98619.50;;;14.85;74.72
60170;BME280;46042;49.444;6.862;2022-09-02T00:26:22;98622.25;;;14.83;74.95
60170;BME280;46042;49.444;6.862;2022-09-02T00:28:57;98620.84;;;14.79;75.76
60170;BME280;46042;49.444;6.862;2022-09-02T00:31:28;98614.34;;;14.72;75.29
60170;BME280;46042;49.444;6.862;2022-09-02T00:33:55;98614.75;;;14.67;76.11
60170;BME280;46042;49.444;6.862;2022-09-02T00:36:22;98609.22;;;14.59;76.68
60170;BME280;46042;49.444;6.862;2022-09-02T00:38:53;98602.50;;;14.55;77.13
60170;BME280;46042;49.444;6.862;2022-09-02T00:41:22;98606.50;;;14.49;77.40
60170;BME280;46042;49.444;6.862;2022-09-02T00:44:01;98613.13;;;14.43;76.97
60170;BME280;46042;49.444;6.862;2022-09-02T00:46:30;98605.00;;;14.35;78.61
60170;BME280;46042;49.444;6.862;2022-09-02T00:49:11;98604.41;;;14.31;77.58
60170;BME280;46042;49.444;6.862;2022-09-02T00:52:07;98600.84;;;14.21;77.93
60170;BME280;46042;49.444;6.862;2022-09-02T00:54:40;98605.28;;;14.20;78.05
60170;BME280;46042;49.444;6.862;2022-09-02T00:57:12;98598.03;;;14.22;77.38
60170;BME280;46042;49.444;6.862;2022-09-02T01:02:30;98605.16;;;14.22;76.86
60170;BME280;46042;49.444;6.862;2022-09-02T01:04:59;98600.09;;;14.19;77.28
60170;BME280;46042;49.444;6.862;2022-09-02T01:07:29;98602.75;;;14.19;77.14
60170;BME280;46042;49.444;6.862;2022-09-02T01:09:58;98595.31;;;14.13;77.26
60170;BME280;46042;49.444;6.862;2022-09-02T01:12:28;98604.59;;;14.07;79.21
60170;BME280;46042;49.444;6.862;2022-09-02T01:14:56;98605.22;;;13.99;79.24
60170;BME280;46042;49.444;6.862;2022-09-02T01:17:23;98610.88;;;13.94;78.35
60170;BME280;46042;49.444;6.862;2022-09-02T01:19:58;98615.50;;;13.81;79.95
60170;BME280;46042;49.444;6.862;2022-09-02T01:22:29;98612.84;;;13.81;80.03
60170;BME280;46042;49.444;6.862;2022-09-02T01:25:00;98610.41;;;13.78;80.08
60170;BME280;46042;49.444;6.862;2022-09-02T01:27:32;98613.31;;;13.75;80.68
60170;BME280;46042;49.444;6.862;2022-09-02T01:30:00;98613.44;;;13.73;79.42
60170;BME280;46042;49.444;6.862;2022-09-02T01:32:28;98621.66;;;13.70;79.59
60170;BME280;46042;49.444;6.862;2022-09-02T01:34:55;98623.06;;;13.63;81.04
60170;BME280;46042;49.444;6.862;2022-09-02T01:37:26;98619.50;;;13.53;81.41
60170;BME280;46042;49.444;6.862;2022-09-02T01:39:52;98625.38;;;13.56;80.98
60170;BME280;46042;49.444;6.862;2022-09-02T01:42:20;98624.41;;;13.57;81.21
60170;BME280;46042;49.444;6.862;2022-09-02T01:44:47;98617.66;;;13.53;80.96
60170;BME280;46042;49.444;6.862;2022-09-02T01:47:17;98620.31;;;13.53;79.91
60170;BME280;46042;49.444;6.862;2022-09-02T01:49:44;98612.47;;;13.51;80.10
60170;BME280;46042;49.444;6.862;2022-09-02T01:52:12;98613.34;;;13.52;79.77
60170;BME280;46042;49.444;6.862;2022-09-02T01:54:39;98612.47;;;13.51;79.31
60170;BME280;46042;49.444;6.862;2022-09-02T01:57:09;98610.09;;;13.48;79.77
60170;BME280;46042;49.444;6.862;2022-09-02T01:59:36;98620.81;;;13.47;79.52
60170;BME280;46042;49.444;6.862;2022-09-02T02:02:04;98621.03;;;13.44;80.00
60170;BME280;46042;49.444;6.862;2022-09-02T02:04:30;98614.91;;;13.43;78.83
60170;BME280;46042;49.444;6.862;2022-09-02T02:06:58;98621.25;;;13.41;79.80
60170;BME280;46042;49.444;6.862;2022-09-02T02:09:25;98619.69;;;13.38;78.93
60170;BME280;46042;49.444;6.862;2022-09-02T02:11:53;98624.97;;;13.38;79.62
60170;BME280;46042;49.444;6.862;2022-09-02T02:14:20;98615.47;;;13.35;79.23
60170;BME280;46042;49.444;6.862;2022-09-02T02:16:46;98608.84;;;13.30;79.97
60170;BME280;46042;49.444;6.862;2022-09-02T02:19:13;98621.25;;;13.29;80.57
60170;BME280;46042;49.444;6.862;2022-09-02T02:21:40;98615.94;;;13.18;81.21
60170;BME280;46042;49.444;6.862;2022-09-02T02:24:07;98616.66;;;13.20;80.10
60170;BME280;46042;49.444;6.862;2022-09-02T02:26:37;98611.97;;;13.12;80.66
60170;BME280;46042;49.444;6.862;2022-09-02T02:29:04;98613.63;;;13.13;80.22
60170;BME280;46042;49.444;6.862;2022-09-02T02:31:31;98609.44;;;13.11;79.92
60170;BME280;46042;49.444;6.862;2022-09-02T02:33:58;98609.56;;;13.09;80.86
60170;BME280;46042;49.444;6.862;2022-09-02T02:36:30;98616.78;;;13.07;81.09
60170;BME280;46042;49.444;6.862;2022-09-02T02:38:57;98606.44;;;13.04;80.37
60170;BME280;46042;49.444;6.862;2022-09-02T02:41:24;98606.66;;;13.01;81.47
60170;BME280;46042;49.444;6.862;2022-09-02T02:43:52;98603.75;;;12.92;81.35
60170;BME280;46042;49.444;6.862;2022-09-02T02:46:18;98604.97;;;12.88;81.91
60170;BME280;46042;49.444;6.862;2022-09-02T02:48:48;98601.47;;;12.88;81.17
60170;BME280;46042;49.444;6.862;2022-09-02T02:51:14;98606.03;;;12.86;82.63
60170;BME280;46042;49.444;6.862;2022-09-02T02:53:41;98602.66;;;12.84;82.39
60170;BME280;46042;49.444;6.862;2022-09-02T02:56:11;98603.63;;;12.83;81.03
60170;BME280;46042;49.444;6.862;2022-09-02T02:58:38;98604.59;;;12.82;81.67
60170;BME280;46042;49.444;6.862;2022-09-02T03:01:05;98604.69;;;12.80;82.15
60170;BME280;46042;49.444;6.862;2022-09-02T03:03:32;98595.31;;;12.76;81.32
60170;BME280;46042;49.444;6.862;2022-09-02T03:06:02;98596.38;;;12.73;81.98
60170;BME280;46042;49.444;6.862;2022-09-02T03:08:30;98598.28;;;12.71;81.88
60170;BME280;46042;49.444;6.862;2022-09-02T03:10:57;98602.03;;;12.69;82.50
60170;BME280;46042;49.444;6.862;2022-09-02T03:13:25;98598.63;;;12.66;81.99
60170;BME280;46042;49.444;6.862;2022-09-02T03:15:54;98597.91;;;12.64;82.38
60170;BME280;46042;49.444;6.862;2022-09-02T03:18:23;98605.00;;;12.64;82.04
60170;BME280;46042;49.444;6.862;2022-09-02T03:20:50;98606.22;;;12.60;82.37
60170;BME280;46042;49.444;6.862;2022-09-02T03:23:17;98606.22;;;12.60;81.90
60170;BME280;46042;49.444;6.862;2022-09-02T03:25:45;98601.03;;;12.58;82.18
60170;BME280;46042;49.444;6.862;2022-09-02T03:28:12;98598.63;;;12.55;82.47
60170;BME280;46042;49.444;6.862;2022-09-02T03:30:40;98600.53;;;12.53;82.61
60170;BME280;46042;49.444;6.862;2022-09-02T03:33:07;98602.31;;;12.52;82.73
60170;BME280;46042;49.444;6.862;2022-09-02T03:35:41;98599.81;;;12.51;83.12
60170;BME280;46042;49.444;6.862;2022-09-02T03:38:09;98597.28;;;12.49;82.79
60170;BME280;46042;49.444;6.862;2022-09-02T03:40:37;98605.19;;;12.49;81.85
60170;BME280;46042;49.444;6.862;2022-09-02T03:43:08;98597.03;;;12.41;82.44
60170;BME280;46042;49.444;6.862;2022-09-02T03:45:34;98601.13;;;12.45;82.95
60170;BME280;46042;49.444;6.862;2022-09-02T03:48:01;98601.34;;;12.42;83.02
60170;BME280;46042;49.444;6.862;2022-09-02T03:50:31;98604.19;;;12.39;83.06
60170;BME280;46042;49.444;6.862;2022-09-02T03:52:58;98598.19;;;12.37;83.42
60170;BME280;46042;49.444;6.862;2022-09-02T03:55:25;98594.72;;;12.36;83.43
60170;BME280;46042;49.444;6.862;2022-09-02T03:57:54;98599.28;;;12.34;83.19
60170;BME280;46042;49.444;6.862;2022-09-02T04:00:24;98595.28;;;12.29;83.58
60170;BME280;46042;49.444;6.862;2022-09-02T04:02:51;98590.09;;;12.27;83.90
60170;BME280;46042;49.444;6.862;2022-09-02T04:05:20;98587.59;;;12.26;83.66
60170;BME280;46042;49.444;6.862;2022-09-02T04:07:48;98587.69;;;12.24;83.34
60170;BME280;46042;49.444;6.862;2022-09-02T04:10:19;98584.56;;;12.19;83.73
60170;BME280;46042;49.444;6.862;2022-09-02T04:12:48;98587.28;;;12.17;83.80
60170;BME280;46042;49.444;6.862;2022-09-02T04:15:15;98588.25;;;12.16;84.45
60170;BME280;46042;49.444;6.862;2022-09-02T04:21:31;98583.31;;;12.12;84.21
60170;BME280;46042;49.444;6.862;2022-09-02T04:23:59;98580.78;;;12.10;83.71
60170;BME280;46042;49.444;6.862;2022-09-02T04:26:25;98583.53;;;12.08;83.92
60170;BME280;46042;49.444;6.862;2022-09-02T04:28:52;98586.41;;;12.05;84.21
60170;BME280;46042;49.444;6.862;2022-09-02T04:31:21;98584.72;;;12.04;84.94
60170;BME280;46042;49.444;6.862;2022-09-02T04:33:48;98584.00;;;12.02;84.74
60170;BME280;46042;49.444;6.862;2022-09-02T04:36:15;98575.22;;;12.02;83.98
60170;BME280;46042;49.444;6.862;2022-09-02T04:38:45;98574.44;;;12.00;84.55
60170;BME280;46042;49.444;6.862;2022-09-02T04:41:19;98574.44;;;12.00;83.80
60170;BME280;46042;49.444;6.862;2022-09-02T04:43:49;98576.38;;;11.98;84.29
60170;BME280;46042;49.444;6.862;2022-09-02T04:46:20;98576.59;;;11.94;84.92
60170;BME280;46042;49.444;6.862;2022-09-02T04:49:00;98571.41;;;11.93;84.67
60170;BME280;46042;49.444;6.862;2022-09-02T04:51:27;98569.22;;;11.87;86.45
60170;BME280;46042;49.444;6.862;2022-09-02T04:53:53;98570.91;;;11.88;84.69
60170;BME280;46042;49.444;6.862;2022-09-02T04:56:23;98576.06;;;11.89;84.43
60170;BME280;46042;49.444;6.862;2022-09-02T04:58:51;98571.97;;;11.85;86.05
60170;BME280;46042;49.444;6.862;2022-09-02T05:01:21;98572.94;;;11.84;83.94
60170;BME280;46042;49.444;6.862;2022-09-02T05:03:49;98569.56;;;11.82;84.65
60170;BME280;46042;49.444;6.862;2022-09-02T05:06:20;98571.56;;;11.78;86.81
60170;BME280;46042;49.444;6.862;2022-09-02T05:08:48;98576.25;;;11.75;86.42
60170;BME280;46042;49.444;6.862;2022-09-02T05:11:18;98577.81;;;11.77;85.81
60170;BME280;46042;49.444;6.862;2022-09-02T05:13:47;98576.03;;;11.78;86.55
60170;BME280;46042;49.444;6.862;2022-09-02T05:16:17;98582.03;;;11.80;85.86
60170;BME280;46042;49.444;6.862;2022-09-02T05:18:45;98568.84;;;11.80;85.36
60170;BME280;46042;49.444;6.862;2022-09-02T05:21:12;98573.06;;;11.83;84.64
60170;BME280;46042;49.444;6.862;2022-09-02T05:23:40;98569.47;;;11.84;85.02
60170;BME280;46042;49.444;6.862;2022-09-02T05:26:08;98573.16;;;11.81;87.61
60170;BME280;46042;49.444;6.862;2022-09-02T05:28:36;98571.25;;;11.83;85.34
60170;BME280;46042;49.444;6.862;2022-09-02T05:31:08;98574.75;;;11.84;85.14
60170;BME280;46042;49.444;6.862;2022-09-02T05:33:37;98579.22;;;11.94;87.11
60170;BME280;46042;49.444;6.862;2022-09-02T05:36:17;98579.94;;;12.09;86.32
60170;BME280;46042;49.444;6.862;2022-09-02T05:38:45;98582.06;;;12.29;86.20
60170;BME280;46042;49.444;6.862;2022-09-02T05:41:22;98574.34;;;12.50;85.49
60170;BME280;46042;49.444;6.862;2022-09-02T05:43:55;98583.16;;;12.73;83.79
60170;BME280;46042;49.444;6.862;2022-09-02T05:46:25;98585.84;;;12.85;83.99
60170;BME280;46042;49.444;6.862;2022-09-02T05:48:53;98582.13;;;12.99;83.25
60170;BME280;46042;49.444;6.862;2022-09-02T05:51:39;98574.59;;;13.17;82.81
60170;BME280;46042;49.444;6.862;2022-09-02T05:54:10;98580.34;;;13.33;81.48
60170;BME280;46042;49.444;6.862;2022-09-02T05:56:39;98578.56;;;13.57;83.74
60170;BME280;46042;49.444;6.862;2022-09-02T05:59:11;98587.44;;;13.78;82.35
60170;BME280;46042;49.444;6.862;2022-09-02T06:01:41;98574.03;;;14.03;81.88
60170;BME280;46042;49.444;6.862;2022-09-02T06:04:08;98580.91;;;14.27;80.37
60170;BME280;46042;49.444;6.862;2022-09-02T06:06:35;98570.09;;;14.51;79.54
60170;BME280;46042;49.444;6.862;2022-09-02T06:09:05;98567.41;;;14.62;78.39
60170;BME280;46042;49.444;6.862;2022-09-02T06:11:38;98577.34;;;14.82;78.75
60170;BME280;46042;49.444;6.862;2022-09-02T06:14:21;98566.25;;;14.98;76.25
60170;BME280;46042;49.444;6.862;2022-09-02T06:16:51;98572.34;;;15.19;75.95
60170;BME280;46042;49.444;6.862;2022-09-02T06:19:20;98567.53;;;15.34;75.81
60170;BME280;46042;49.444;6.862;2022-09-02T06:21:48;98560.16;;;15.48;76.13
60170;BME280;46042;49.444;6.862;2022-09-02T06:24:15;98559.00;;;15.72;73.83
60170;BME280;46042;49.444;6.862;2022-09-02T06:26:41;98555.13;;;15.96;74.14
60170;BME280;46042;49.444;6.862;2022-09-02T06:29:09;98554.72;;;16.00;73.36
60170;BME280;46042;49.444;6.862;2022-09-02T06:31:40;98550.41;;;16.19;71.08
60170;BME280;46042;49.444;6.862;2022-09-02T06:34:07;98557.25;;;16.31;73.55
60170;BME280;46042;49.444;6.862;2022-09-02T06:36:40;98556.97;;;16.34;70.14
60170;BME280;46042;49.444;6.862;2022-09-02T06:39:10;98554.72;;;16.49;69.98
60170;BME280;46042;49.444;6.862;2022-09-02T06:41:58;98550.75;;;16.83;71.49
60170;BME280;46042;49.444;6.862;2022-09-02T06:44:25;98546.69;;;16.99;69.19
60170;BME280;46042;49.444;6.862;2022-09-02T06:46:57;98548.38;;;17.00;68.55
60170;BME280;46042;49.444;6.862;2022-09-02T06:49:26;98551.59;;;17.03;65.68
60170;BME280;46042;49.444;6.862;2022-09-02T06:51:56;98545.53;;;16.91;62.40
60170;BME280;46042;49.444;6.862;2022-09-02T06:54:23;98547.22;;;17.02;66.47
60170;BME280;46042;49.444;6.862;2022-09-02T06:56:53;98543.97;;;17.18;64.71
60170;BME280;46042;49.444;6.862;2022-09-02T06:59:20;98530.47;;;17.20;64.66
60170;BME280;46042;49.444;6.862;2022-09-02T07:01:47;98539.78;;;17.06;61.16
60170;BME280;46042;49.444;6.862;2022-09-02T07:04:15;98539.59;;;17.27;65.04
60170;BME280;46042;49.444;6.862;2022-09-02T07:07:03;98528.94;;;17.27;62.22
60170;BME280;46042;49.444;6.862;2022-09-02T07:09:30;98538.50;;;17.48;60.90
60170;BME280;46042;49.444;6.862;2022-09-02T07:12:02;98542.78;;;17.59;60.78
60170;BME280;46042;49.444;6.862;2022-09-02T07:14:35;98540.81;;;17.61;58.21
60170;BME280;46042;49.444;6.862;2022-09-02T07:17:01;98537.69;;;17.66;58.67
60170;BME280;46042;49.444;6.862;2022-09-02T07:19:28;98539.09;;;17.88;59.30
60170;BME280;46042;49.444;6.862;2022-09-02T07:21:58;98537.97;;;17.90;58.15
60170;BME280;46042;49.444;6.862;2022-09-02T07:24:24;98538.34;;;17.96;56.53
60170;BME280;46042;49.444;6.862;2022-09-02T07:26:51;98546.53;;;18.12;57.26
60170;BME280;46042;49.444;6.862;2022-09-02T07:29:21;98542.75;;;18.15;57.30
60170;BME280;46042;49.444;6.862;2022-09-02T07:31:48;98536.56;;;18.32;61.14
60170;BME280;46042;49.444;6.862;2022-09-02T07:34:16;98542.63;;;18.43;55.93
60170;BME280;46042;49.444;6.862;2022-09-02T07:36:43;98545.06;;;18.36;55.00
60170;BME280;46042;49.444;6.862;2022-09-02T07:39:12;98545.28;;;18.43;55.83
60170;BME280;46042;49.444;6.862;2022-09-02T07:41:40;98547.47;;;18.66;54.32
60170;BME280;46042;49.444;6.862;2022-09-02T07:44:07;98536.81;;;18.92;55.50
60170;BME280;46042;49.444;6.862;2022-09-02T07:46:34;98541.53;;;19.25;54.09
60170;BME280;46042;49.444;6.862;2022-09-02T07:49:04;98547.25;;;19.81;55.74
60170;BME280;46042;49.444;6.862;2022-09-02T07:51:36;98549.66;;;20.01;51.10
60170;BME280;46042;49.444;6.862;2022-09-02T07:54:04;98549.81;;;19.99;53.00
60170;BME280;46042;49.444;6.862;2022-09-02T07:56:31;98546.94;;;19.93;52.06
60170;BME280;46042;49.444;6.862;2022-09-02T07:58:58;98544.91;;;19.86;51.44
60170;BME280;46042;49.444;6.862;2022-09-02T08:01:25;98544.63;;;20.06;55.93
60170;BME280;46042;49.444;6.862;2022-09-02T08:03:53;98548.34;;;20.30;55.82
60170;BME280;46042;49.444;6.862;2022-09-02T08:06:20;98546.50;;;20.22;48.80
60170;BME280;46042;49.444;6.862;2022-09-02T08:09:03;98536.63;;;20.39;53.25
60170;BME280;46042;49.444;6.862;2022-09-02T08:11:31;98537.47;;;20.31;47.25
60170;BME280;46042;49.444;6.862;2022-09-02T08:14:00;98541.66;;;20.42;47.44
60170;BME280;46042;49.444;6.862;2022-09-02T08:16:28;98541.50;;;20.60;50.37
60170;BME280;46042;49.444;6.862;2022-09-02T08:18:55;98536.47;;;20.74;45.81
60170;BME280;46042;49.444;6.862;2022-09-02T08:21:23;98540.16;;;20.89;45.72
60170;BME280;46042;49.444;6.862;2022-09-02T08:23:51;98536.03;;;21.18;47.86
60170;BME280;46042;49.444;6.862;2022-09-02T08:26:18;98546.91;;;21.25;43.95
60170;BME280;46042;49.444;6.862;2022-09-02T08:28:45;98542.28;;;21.02;44.38
60170;BME280;46042;49.444;6.862;2022-09-02T08:31:11;98528.16;;;21.25;44.41
60170;BME280;46042;49.444;6.862;2022-09-02T08:33:38;98526.78;;;21.38;48.33
60170;BME280;46042;49.444;6.862;2022-09-02T08:36:06;98523.56;;;21.42;42.94
60170;BME280;46042;49.444;6.862;2022-09-02T08:38:34;98524.47;;;21.66;44.08
60170;BME280;46042;49.444;6.862;2022-09-02T08:41:11;98511.09;;;21.90;44.26
60170;BME280;46042;49.444;6.862;2022-09-02T08:43:40;98518.16;;;22.76;49.36
60170;BME280;46042;49.444;6.862;2022-09-02T08:46:11;98521.34;;;22.33;41.21
60170;BME280;46042;49.444;6.862;2022-09-02T08:48:51;98524.22;;;22.31;39.57
60170;BME280;46042;49.444;6.862;2022-09-02T08:51:32;98518.38;;;22.51;40.68
60170;BME280;46042;49.444;6.862;2022-09-02T08:56:48;98521.31;;;22.79;39.73
60170;BME280;46042;49.444;6.862;2022-09-02T08:59:20;98528.34;;;22.80;39.30
60170;BME280;46042;49.444;6.862;2022-09-02T09:01:50;98528.78;;;22.69;39.29
60170;BME280;46042;49.444;6.862;2022-09-02T09:07:16;98529.31;;;22.64;36.80
60170;BME280;46042;49.444;6.862;2022-09-02T09:17:47;98523.00;;;23.25;35.42
60170;BME280;46042;49.444;6.862;2022-09-02T09:20:23;98514.56;;;23.43;36.61
60170;BME280;46042;49.444;6.862;2022-09-02T09:22:54;98517.31;;;23.50;34.35
60170;BME280;46042;49.444;6.862;2022-09-02T09:25:24;98514.28;;;23.08;35.06
60170;BME280;46042;49.444;6.862;2022-09-02T09:27:59;98518.16;;;23.36;38.73
60170;BME280;46042;49.444;6.862;2022-09-02T09:30:27;98506.25;;;23.75;34.18
60170;BME280;46042;49.444;6.862;2022-09-02T09:32:56;98508.63;;;23.85;36.74
60170;BME280;46042;49.444;6.862;2022-09-02T09:35:49;98503.16;;;23.56;34.13
60170;BME280;46042;49.444;6.862;2022-09-02T09:38:31;98501.19;;;23.65;34.84
60170;BME280;46042;49.444;6.862;2022-09-02T09:41:16;98498.59;;;23.79;36.51
60170;BME280;46042;49.444;6.862;2022-09-02T09:43:46;98500.19;;;24.10;36.75
60170;BME280;46042;49.444;6.862;2022-09-02T09:46:26;98509.69;;;24.56;35.77
60170;BME280;46042;49.444;6.862;2022-09-02T09:48:54;98495.22;;;24.07;33.90
60170;BME280;46042;49.444;6.862;2022-09-02T09:51:20;98497.22;;;24.48;38.35
60170;BME280;46042;49.444;6.862;2022-09-02T09:53:50;98495.06;;;24.37;35.41
60170;BME280;46042;49.444;6.862;2022-09-02T09:56:23;98495.81;;;24.81;35.06
60170;BME280;46042;49.444;6.862;2022-09-02T09:58:52;98495.16;;;24.50;34.16
60170;BME280;46042;49.444;6.862;2022-09-02T10:01:27;98493.41;;;24.36;33.92
60170;BME280;46042;49.444;6.862;2022-09-02T10:04:02;98483.19;;;25.17;39.71
60170;BME280;46042;49.444;6.862;2022-09-02T10:06:46;98476.38;;;24.85;33.38
60170;BME280;46042;49.444;6.862;2022-09-02T10:14:21;98471.59;;;25.23;33.44
60170;BME280;46042;49.444;6.862;2022-09-02T10:22:52;98464.28;;;25.10;32.02
60170;BME280;46042;49.444;6.862;2022-09-02T10:28:53;98461.28;;;25.40;29.47
60170;BME280;46042;49.444;6.862;2022-09-02T10:39:58;98448.81;;;25.32;31.09
60170;BME280;46042;49.444;6.862;2022-09-02T10:42:30;98443.19;;;26.16;32.32
60170;BME280;46042;49.444;6.862;2022-09-02T10:47:39;98452.78;;;26.19;29.13
60170;BME280;46042;49.444;6.862;2022-09-02T10:50:49;98445.25;;;25.94;27.80
60170;BME280;46042;49.444;6.862;2022-09-02T10:53:35;98434.50;;;26.21;27.26
60170;BME280;46042;49.444;6.862;2022-09-02T10:56:11;98424.94;;;26.38;31.31
60170;BME280;46042;49.444;6.862;2022-09-02T10:58:56;98417.41;;;25.80;28.75
60170;BME280;46042;49.444;6.862;2022-09-02T11:01:34;98428.84;;;26.09;27.87
60170;BME280;46042;49.444;6.862;2022-09-02T11:07:08;98410.81;;;26.23;30.25
60170;BME280;46042;49.444;6.862;2022-09-02T11:09:44;98418.44;;;26.66;27.97
60170;BME280;46042;49.444;6.862;2022-09-02T11:12:31;98419.53;;;26.45;27.64
60170;BME280;46042;49.444;6.862;2022-09-02T11:17:48;98411.59;;;26.64;27.67
60170;BME280;46042;49.444;6.862;2022-09-02T11:23:25;98413.81;;;26.80;25.67
60170;BME280;46042;49.444;6.862;2022-09-02T11:26:02;98405.00;;;27.58;32.64
60170;BME280;46042;49.444;6.862;2022-09-02T11:29:34;98412.13;;;28.35;25.80
60170;BME280;46042;49.444;6.862;2022-09-02T11:31:45;98410.75;;;28.00;26.34
60170;BME280;46042;49.444;6.862;2022-09-02T11:37:12;98411.31;;;28.09;30.03
60170;BME280;46042;49.444;6.862;2022-09-02T11:39:52;98397.09;;;28.39;25.69
60170;BME280;46042;49.444;6.862;2022-09-02T11:53:55;98399.28;;;29.23;23.34
60170;BME280;46042;49.444;6.862;2022-09-02T11:56:27;98395.81;;;28.42;24.29
60170;BME280;46042;49.444;6.862;2022-09-02T11:58:55;98401.81;;;27.67;24.03
60170;BME280;46042;49.444;6.862;2022-09-02T12:04:03;98398.31;;;28.43;23.50
60170;BME280;46042;49.444;6.862;2022-09-02T12:09:54;98388.91;;;28.83;29.20
60170;BME280;46042;49.444;6.862;2022-09-02T12:17:44;98384.16;;;29.16;23.94
60170;BME280;46042;49.444;6.862;2022-09-02T12:26:18;98366.84;;;28.98;25.63
60170;BME280;46042;49.444;6.862;2022-09-02T12:28:47;98374.31;;;28.84;23.74
60170;BME280;46042;49.444;6.862;2022-09-02T12:44:28;98338.81;;;30.01;25.06
60170;BME280;46042;49.444;6.862;2022-09-02T12:47:07;98342.06;;;29.25;22.97
60170;BME280;46042;49.444;6.862;2022-09-02T12:55:17;98341.41;;;28.62;24.94
60170;BME280;46042;49.444;6.862;2022-09-02T12:58:09;98317.72;;;29.37;25.30
60170;BME280;46042;49.444;6.862;2022-09-02T13:03:46;98331.53;;;28.49;24.68
60170;BME280;46042;49.444;6.862;2022-09-02T13:31:57;98310.00;;;29.64;23.15
60170;BME280;46042;49.444;6.862;2022-09-02T13:34:27;98285.25;;;29.30;24.92
60170;BME280;46042;49.444;6.862;2022-09-02T13:36:55;98282.41;;;29.25;23.38
60170;BME280;46042;49.444;6.862;2022-09-02T13:39:26;98276.03;;;28.39;24.51
60170;BME280;46042;49.444;6.862;2022-09-02T13:41:53;98262.16;;;28.48;26.68
60170;BME280;46042;49.444;6.862;2022-09-02T13:44:27;98273.56;;;29.30;25.82
60170;BME280;46042;49.444;6.862;2022-09-02T13:47:03;98280.97;;;29.10;25.77
60170;BME280;46042;49.444;6.862;2022-09-02T13:49:34;98277.84;;;29.37;25.23
60170;BME280;46042;49.444;6.862;2022-09-02T13:52:05;98277.19;;;29.12;23.90
60170;BME280;46042;49.444;6.862;2022-09-02T13:54:38;98281.75;;;29.42;26.50
60170;BME280;46042;49.444;6.862;2022-09-02T13:57:11;98275.75;;;29.51;23.59
60170;BME280;46042;49.444;6.862;2022-09-02T13:59:49;98276.16;;;28.45;24.09
60170;BME280;46042;49.444;6.862;2022-09-02T14:02:26;98277.00;;;28.27;25.41
60170;BME280;46042;49.444;6.862;2022-09-02T14:05:14;98272.47;;;28.58;28.69
60170;BME280;46042;49.444;6.862;2022-09-02T14:07:56;98272.28;;;28.90;27.16
60170;BME280;46042;49.444;6.862;2022-09-02T14:10:25;98274.03;;;29.15;25.55
60170;BME280;46042;49.444;6.862;2022-09-02T14:12:54;98260.19;;;29.04;25.37
60170;BME280;46042;49.444;6.862;2022-09-02T14:15:25;98257.75;;;28.84;24.85
60170;BME280;46042;49.444;6.862;2022-09-02T14:20:59;98250.84;;;28.70;25.25
60170;BME280;46042;49.444;6.862;2022-09-02T14:23:30;98252.91;;;28.56;25.13
60170;BME280;46042;49.444;6.862;2022-09-02T14:26:01;98254.84;;;27.92;26.16
60170;BME280;46042;49.444;6.862;2022-09-02T14:28:32;98250.50;;;28.10;26.08
60170;BME280;46042;49.444;6.862;2022-09-02T14:31:04;98235.53;;;28.75;27.46
60170;BME280;46042;49.444;6.862;2022-09-02T14:36:08;98237.38;;;27.88;25.04
60170;BME280;46042;49.444;6.862;2022-09-02T14:43:49;98232.03;;;28.25;27.80
60170;BME280;46042;49.444;6.862;2022-09-02T14:46:21;98235.97;;;28.60;27.78
60170;BME280;46042;49.444;6.862;2022-09-02T14:48:58;98229.84;;;28.65;26.10
60170;BME280;46042;49.444;6.862;2022-09-02T14:54:05;98229.50;;;28.05;25.55
60170;BME280;46042;49.444;6.862;2022-09-02T14:56:52;98222.25;;;27.62;25.92
60170;BME280;46042;49.444;6.862;2022-09-02T14:59:19;98238.38;;;27.18;26.09
60170;BME280;46042;49.444;6.862;2022-09-02T15:01:49;98225.38;;;27.33;27.31
60170;BME280;46042;49.444;6.862;2022-09-02T15:04:17;98236.31;;;27.71;27.93
60170;BME280;46042;49.444;6.862;2022-09-02T15:06:46;98229.25;;;27.69;27.13
60170;BME280;46042;49.444;6.862;2022-09-02T15:09:14;98232.53;;;27.21;26.33
60170;BME280;46042;49.444;6.862;2022-09-02T15:11:47;98233.19;;;26.91;26.74
60170;BME280;46042;49.444;6.862;2022-09-02T15:14:15;98223.75;;;27.00;27.13
60170;BME280;46042;49.444;6.862;2022-09-02T15:16:42;98223.31;;;27.29;27.77
60170;BME280;46042;49.444;6.862;2022-09-02T15:19:09;98220.25;;;27.25;27.48
60170;BME280;46042;49.444;6.862;2022-09-02T15:21:35;98216.78;;;26.86;26.95
60170;BME280;46042;49.444;6.862;2022-09-02T15:24:02;98222.53;;;26.57;27.23
60170;BME280;46042;49.444;6.862;2022-09-02T15:26:29;98221.53;;;26.45;27.20
60170;BME280;46042;49.444;6.862;2022-09-02T15:28:56;98221.19;;;26.34;28.25
60170;BME280;46042;49.444;6.862;2022-09-02T15:31:23;98219.28;;;26.35;28.49
60170;BME280;46042;49.444;6.862;2022-09-02T15:33:50;98218.47;;;26.34;28.32
60170;BME280;46042;49.444;6.862;2022-09-02T15:36:17;98227.59;;;26.40;28.74
60170;BME280;46042;49.444;6.862;2022-09-02T15:38:44;98220.56;;;26.32;28.67
60170;BME280;46042;49.444;6.862;2022-09-02T15:43:38;98212.94;;;26.22;30.04
60170;BME280;46042;49.444;6.862;2022-09-02T15:48:45;98224.78;;;26.08;29.06
60170;BME280;46042;49.444;6.862;2022-09-02T15:51:16;98222.72;;;25.96;29.13